sensor_id;sensor_type;location;lat;lon;timestamp;pressure;altitude;pressure_sealevel;temperature;humidity
40372;BME280;28564;53.346;-6.554;2023-12-20T00:02:20;101452.63;;;10.51;48.22
40372;BME280;28564;53.346;-6.554;2023-12-20T00:04:47;101440.62;;;10.52;48.32
40372;BME280;28564;53.346;-6.554;2023-12-20T00:07:15;101439.59;;;10.52;48.37
40372;BME280;28564;53.346;-6.554;2023-12-20T00:09:42;101434.85;;;10.52;48.51
40372;BME280;28564;53.346;-6.554;2023-12-20T00:12:10;101431.73;;;10.24;48.54
40372;BME280;28564;53.346;-6.554;2023-12-20T00:14:37;101433.60;;;10.51;48.61
40372;BME280;28564;53.346;-6.554;2023-12-20T00:17:05;101448.48;;;10.51;48.68
40372;BME280;28564;53.346;-6.554;2023-12-20T00:19:33;101429.64;;;10.55;48.76
40372;BME280;28564;53.346;-6.554;2023-12-20T00:22:00;101429.58;;;10.58;48.74
40372;BME280;28564;53.346;-6.554;2023-12-20T00:24:27;101431.69;;;10.61;48.82
40372;BME280;28564;53.346;-6.554;2023-12-20T00:26:55;101429.34;;;10.63;48.87
40372;BME280;28564;53.346;-6.554;2023-12-20T00:29:22;101422.06;;;10.33;48.90
40372;BME280;28564;53.346;-6.554;2023-12-20T00:31:49;101430.20;;;10.61;48.98
40372;BME280;28564;53.346;-6.554;2023-12-20T00:34:17;101436.84;;;10.61;48.99
40372;BME280;28564;53.346;-6.554;2023-12-20T00:36:44;101430.15;;;10.34;48.97
40372;BME280;28564;53.346;-6.554;2023-12-20T00:39:11;101428.83;;;10.62;49.01
40372;BME280;28564;53.346;-6.554;2023-12-20T00:41:38;101425.93;;;10.60;49.04
40372;BME280;28564;53.346;-6.554;2023-12-20T00:44:05;101426.78;;;10.58;49.15
40372;BME280;28564;53.346;-6.554;2023-12-20T00:46:33;101427.71;;;10.59;49.28
40372;BME280;28564;53.346;-6.554;2023-12-20T00:49:00;101431.57;;;10.60;49.34
40372;BME280;28564;53.346;-6.554;2023-12-20T00:51:27;101437.39;;;10.60;49.43
40372;BME280;28564;53.346;-6.554;2023-12-20T00:53:55;101437.59;;;10.38;49.52
40372;BME280;28564;53.346;-6.554;2023-12-20T00:56:22;101423.76;;;10.75;49.57
40372;BME280;28564;53.346;-6.554;2023-12-20T00:58:49;101432.02;;;10.85;49.43
40372;BME280;28564;53.346;-6.554;2023-12-20T01:01:16;101424.51;;;10.92;49.37
40372;BME280;28564;53.346;-6.554;2023-12-20T01:03:44;101422.88;;;10.99;49.34
40372;BME280;28564;53.346;-6.554;2023-12-20T01:06:11;101417.65;;;11.05;49.31
40372;BME280;28564;53.346;-6.554;2023-12-20T01:08:38;101419.29;;;10.87;49.31
40372;BME280;28564;53.346;-6.554;2023-12-20T01:11:06;101415.35;;;11.19;49.20
40372;BME280;28564;53.346;-6.554;2023-12-20T01:13:33;101418.69;;;11.21;49.17
40372;BME280;28564;53.346;-6.554;2023-12-20T01:16:00;101418.29;;;10.94;49.23
40372;BME280;28564;53.346;-6.554;2023-12-20T01:18:27;101421.41;;;11.22;49.26
40372;BME280;28564;53.346;-6.554;2023-12-20T01:20:54;101422.66;;;11.28;49.24
40372;BME280;28564;53.346;-6.554;2023-12-20T01:23:22;101420.14;;;11.36;49.20
40372;BME280;28564;53.346;-6.554;2023-12-20T01:25:49;101421.14;;;11.23;49.03
40372;BME280;28564;53.346;-6.554;2023-12-20T01:28:16;101419.90;;;11.29;48.99
40372;BME280;28564;53.346;-6.554;2023-12-20T01:30:43;101422.08;;;11.33;49.05
40372;BME280;28564;53.346;-6.554;2023-12-20T01:33:10;101424.21;;;11.15;49.17
40372;BME280;28564;53.346;-6.554;2023-12-20T01:35:37;101426.12;;;11.14;49.22
40372;BME280;28564;53.346;-6.554;2023-12-20T01:38:04;101427.80;;;11.37;49.31
40372;BME280;28564;53.346;-6.554;2023-12-20T01:40:32;101429.99;;;11.19;49.18
40372;BME280;28564;53.346;-6.554;2023-12-20T01:42:59;101432.83;;;11.51;49.00
40372;BME280;28564;53.346;-6.554;2023-12-20T01:45:26;101423.79;;;11.35;48.85
40372;BME280;28564;53.346;-6.554;2023-12-20T01:47:54;101421.74;;;11.58;48.80
40372;BME280;28564;53.346;-6.554;2023-12-20T01:50:22;101421.31;;;11.64;48.84
40372;BME280;28564;53.346;-6.554;2023-12-20T01:52:51;101419.00;;;11.51;48.73
40372;BME280;28564;53.346;-6.554;2023-12-20T01:55:19;101422.36;;;11.59;48.53
40372;BME280;28564;53.346;-6.554;2023-12-20T01:57:47;101419.79;;;12.12;48.45
40372;BME280;28564;53.346;-6.554;2023-12-20T02:00:15;101427.44;;;11.71;48.38
40372;BME280;28564;53.346;-6.554;2023-12-20T02:02:43;101442.15;;;11.73;48.39
40372;BME280;28564;53.346;-6.554;2023-12-20T02:05:12;101414.74;;;11.78;48.29
40372;BME280;28564;53.346;-6.554;2023-12-20T02:07:40;101414.34;;;11.82;48.27
40372;BME280;28564;53.346;-6.554;2023-12-20T02:10:08;101413.73;;;12.08;48.29
40372;BME280;28564;53.346;-6.554;2023-12-20T02:12:35;101420.17;;;11.92;48.16
40372;BME280;28564;53.346;-6.554;2023-12-20T02:15:03;101416.70;;;11.93;48.13
40372;BME280;28564;53.346;-6.554;2023-12-20T02:17:32;101429.23;;;11.99;48.04
40372;BME280;28564;53.346;-6.554;2023-12-20T02:19:59;101420.32;;;12.01;48.13
40372;BME280;28564;53.346;-6.554;2023-12-20T02:22:27;101424.74;;;12.00;48.55
40372;BME280;28564;53.346;-6.554;2023-12-20T02:24:54;101425.47;;;11.92;49.11
40372;BME280;28564;53.346;-6.554;2023-12-20T02:27:22;101431.15;;;11.82;49.65
40372;BME280;28564;53.346;-6.554;2023-12-20T02:29:50;101435.62;;;11.79;49.88
40372;BME280;28564;53.346;-6.554;2023-12-20T02:32:19;101445.07;;;11.78;50.18
40372;BME280;28564;53.346;-6.554;2023-12-20T02:34:47;101421.78;;;11.75;50.67
40372;BME280;28564;53.346;-6.554;2023-12-20T02:37:15;101422.95;;;11.67;51.24
40372;BME280;28564;53.346;-6.554;2023-12-20T02:39:42;101412.53;;;11.74;51.90
40372;BME280;28564;53.346;-6.554;2023-12-20T02:42:09;101429.78;;;11.64;52.39
40372;BME280;28564;53.346;-6.554;2023-12-20T02:44:36;101409.73;;;11.34;52.66
40372;BME280;28564;53.346;-6.554;2023-12-20T02:47:04;101415.91;;;11.80;52.81
40372;BME280;28564;53.346;-6.554;2023-12-20T02:49:31;101411.79;;;11.49;52.86
40372;BME280;28564;53.346;-6.554;2023-12-20T02:51:58;101432.30;;;11.43;52.89
40372;BME280;28564;53.346;-6.554;2023-12-20T02:54:25;101420.18;;;11.66;53.00
40372;BME280;28564;53.346;-6.554;2023-12-20T02:56:53;101430.50;;;11.17;53.00
40372;BME280;28564;53.346;-6.554;2023-12-20T02:59:20;101432.12;;;11.21;53.00
40372;BME280;28564;53.346;-6.554;2023-12-20T03:01:47;101435.85;;;11.29;52.87
40372;BME280;28564;53.346;-6.554;2023-12-20T03:04:14;101424.43;;;11.35;52.58
40372;BME280;28564;53.346;-6.554;2023-12-20T03:06:41;101427.73;;;11.45;52.26
40372;BME280;28564;53.346;-6.554;2023-12-20T03:09:09;101424.30;;;11.74;52.04
40372;BME280;28564;53.346;-6.554;2023-12-20T03:11:36;101432.63;;;11.58;51.77
40372;BME280;28564;53.346;-6.554;2023-12-20T03:14:03;101416.23;;;11.65;51.51
40372;BME280;28564;53.346;-6.554;2023-12-20T03:16:30;101422.20;;;11.71;51.35
40372;BME280;28564;53.346;-6.554;2023-12-20T03:18:58;101405.66;;;11.96;51.26
40372;BME280;28564;53.346;-6.554;2023-12-20T03:21:24;101406.05;;;11.98;51.37
40372;BME280;28564;53.346;-6.554;2023-12-20T03:23:52;101403.63;;;11.76;51.40
40372;BME280;28564;53.346;-6.554;2023-12-20T03:26:19;101405.04;;;11.74;51.36
40372;BME280;28564;53.346;-6.554;2023-12-20T03:28:46;101397.47;;;11.78;51.26
40372;BME280;28564;53.346;-6.554;2023-12-20T03:31:13;101392.69;;;11.80;51.22
40372;BME280;28564;53.346;-6.554;2023-12-20T03:33:41;101405.21;;;11.83;51.02
40372;BME280;28564;53.346;-6.554;2023-12-20T03:36:08;101397.86;;;11.86;50.89
40372;BME280;28564;53.346;-6.554;2023-12-20T03:38:35;101432.06;;;12.14;50.67
40372;BME280;28564;53.346;-6.554;2023-12-20T03:41:04;101404.20;;;11.96;50.60
40372;BME280;28564;53.346;-6.554;2023-12-20T03:43:31;101412.78;;;11.80;50.42
40372;BME280;28564;53.346;-6.554;2023-12-20T03:45:58;101420.78;;;12.05;50.44
40372;BME280;28564;53.346;-6.554;2023-12-20T03:48:25;101410.59;;;12.10;50.50
40372;BME280;28564;53.346;-6.554;2023-12-20T03:50:53;101401.29;;;12.09;50.83
40372;BME280;28564;53.346;-6.554;2023-12-20T03:53:20;101405.17;;;11.84;51.01
40372;BME280;28564;53.346;-6.554;2023-12-20T03:55:47;101416.75;;;12.05;51.25
40372;BME280;28564;53.346;-6.554;2023-12-20T03:58:14;101395.15;;;12.02;51.49
40372;BME280;28564;53.346;-6.554;2023-12-20T04:00:42;101393.93;;;12.23;51.67
40372;BME280;28564;53.346;-6.554;2023-12-20T04:03:09;101392.80;;;11.80;51.81
40372;BME280;28564;53.346;-6.554;2023-12-20T04:05:36;101393.99;;;12.02;51.85
40372;BME280;28564;53.346;-6.554;2023-12-20T04:08:04;101392.10;;;12.04;51.77
40372;BME280;28564;53.346;-6.554;2023-12-20T04:10:32;101399.81;;;12.03;51.72
40372;BME280;28564;53.346;-6.554;2023-12-20T04:12:59;101385.73;;;12.02;51.71
40372;BME280;28564;53.346;-6.554;2023-12-20T04:15:27;101405.37;;;12.01;51.67
40372;BME280;28564;53.346;-6.554;2023-12-20T04:17:54;101414.92;;;12.00;51.47
40372;BME280;28564;53.346;-6.554;2023-12-20T04:20:21;101433.78;;;12.27;51.30
40372;BME280;28564;53.346;-6.554;2023-12-20T04:22:48;101406.28;;;12.10;50.99
40372;BME280;28564;53.346;-6.554;2023-12-20T04:25:15;101411.32;;;12.14;50.86
40372;BME280;28564;53.346;-6.554;2023-12-20T04:27:43;101417.81;;;12.21;50.60
40372;BME280;28564;53.346;-6.554;2023-12-20T04:30:11;101411.24;;;12.26;50.49
40372;BME280;28564;53.346;-6.554;2023-12-20T04:32:38;101416.50;;;12.30;50.27
40372;BME280;28564;53.346;-6.554;2023-12-20T04:35:06;101396.68;;;12.37;50.07
40372;BME280;28564;53.346;-6.554;2023-12-20T04:37:33;101379.81;;;12.19;50.00
40372;BME280;28564;53.346;-6.554;2023-12-20T04:40:00;101369.71;;;12.18;50.32
40372;BME280;28564;53.346;-6.554;2023-12-20T04:42:28;101357.30;;;12.39;50.36
40372;BME280;28564;53.346;-6.554;2023-12-20T04:44:55;101358.35;;;12.16;50.23
40372;BME280;28564;53.346;-6.554;2023-12-20T04:47:22;101370.70;;;12.38;50.14
40372;BME280;28564;53.346;-6.554;2023-12-20T04:49:49;101389.62;;;12.38;50.15
40372;BME280;28564;53.346;-6.554;2023-12-20T04:52:17;101405.21;;;12.38;50.45
40372;BME280;28564;53.346;-6.554;2023-12-20T04:54:44;101402.40;;;12.38;50.84
40372;BME280;28564;53.346;-6.554;2023-12-20T04:57:11;101399.18;;;12.36;51.23
40372;BME280;28564;53.346;-6.554;2023-12-20T04:59:38;101402.16;;;12.30;51.65
40372;BME280;28564;53.346;-6.554;2023-12-20T05:02:05;101385.47;;;12.25;52.15
40372;BME280;28564;53.346;-6.554;2023-12-20T05:04:33;101397.04;;;12.21;52.42
40372;BME280;28564;53.346;-6.554;2023-12-20T05:07:00;101392.35;;;12.18;52.63
40372;BME280;28564;53.346;-6.554;2023-12-20T05:09:27;101399.89;;;12.20;52.69
40372;BME280;28564;53.346;-6.554;2023-12-20T05:11:54;101395.02;;;12.17;52.66
40372;BME280;28564;53.346;-6.554;2023-12-20T05:14:21;101390.08;;;12.12;52.89
40372;BME280;28564;53.346;-6.554;2023-12-20T05:16:48;101372.27;;;12.06;53.31
40372;BME280;28564;53.346;-6.554;2023-12-20T05:19:16;101371.74;;;12.03;53.29
40372;BME280;28564;53.346;-6.554;2023-12-20T05:21:43;101373.73;;;11.77;53.26
40372;BME280;28564;53.346;-6.554;2023-12-20T05:24:10;101369.07;;;11.92;53.09
40372;BME280;28564;53.346;-6.554;2023-12-20T05:26:37;101372.50;;;11.85;53.26
40372;BME280;28564;53.346;-6.554;2023-12-20T05:29:05;101358.72;;;11.85;53.27
40372;BME280;28564;53.346;-6.554;2023-12-20T05:31:32;101353.61;;;11.88;53.13
40372;BME280;28564;53.346;-6.554;2023-12-20T05:33:59;101380.35;;;11.86;53.05
40372;BME280;28564;53.346;-6.554;2023-12-20T05:36:27;101361.90;;;11.90;53.02
40372;BME280;28564;53.346;-6.554;2023-12-20T05:38:54;101360.98;;;12.17;52.87
40372;BME280;28564;53.346;-6.554;2023-12-20T05:41:21;101365.73;;;12.25;52.69
40372;BME280;28564;53.346;-6.554;2023-12-20T05:43:48;101366.91;;;12.07;52.59
40372;BME280;28564;53.346;-6.554;2023-12-20T05:46:15;101356.87;;;12.13;52.52
40372;BME280;28564;53.346;-6.554;2023-12-20T05:48:43;101346.65;;;12.19;52.51
40372;BME280;28564;53.346;-6.554;2023-12-20T05:51:12;101341.87;;;12.25;52.40
40372;BME280;28564;53.346;-6.554;2023-12-20T05:53:39;101341.18;;;12.31;52.38
40372;BME280;28564;53.346;-6.554;2023-12-20T05:56:06;101337.42;;;12.35;52.38
40372;BME280;28564;53.346;-6.554;2023-12-20T05:58:33;101338.53;;;12.39;52.50
40372;BME280;28564;53.346;-6.554;2023-12-20T06:01:00;101320.07;;;12.41;52.79
40372;BME280;28564;53.346;-6.554;2023-12-20T06:03:30;101316.44;;;12.43;52.74
40372;BME280;28564;53.346;-6.554;2023-12-20T06:05:57;101308.04;;;12.48;52.80
40372;BME280;28564;53.346;-6.554;2023-12-20T06:08:25;101306.40;;;12.04;52.65
40372;BME280;28564;53.346;-6.554;2023-12-20T06:10:52;101303.87;;;12.06;52.77
40372;BME280;28564;53.346;-6.554;2023-12-20T06:13:19;101305.08;;;12.35;52.89
40372;BME280;28564;53.346;-6.554;2023-12-20T06:15:46;101310.11;;;12.13;52.88
40372;BME280;28564;53.346;-6.554;2023-12-20T06:18:13;101315.06;;;12.42;52.74
40372;BME280;28564;53.346;-6.554;2023-12-20T06:20:41;101306.57;;;12.43;52.76
40372;BME280;28564;53.346;-6.554;2023-12-20T06:23:08;101309.33;;;12.15;53.05
40372;BME280;28564;53.346;-6.554;2023-12-20T06:25:35;101302.02;;;12.17;53.23
40372;BME280;28564;53.346;-6.554;2023-12-20T06:28:03;101301.61;;;12.43;53.36
40372;BME280;28564;53.346;-6.554;2023-12-20T06:30:29;101284.00;;;12.62;53.56
40372;BME280;28564;53.346;-6.554;2023-12-20T06:32:57;101307.33;;;12.14;53.44
40372;BME280;28564;53.346;-6.554;2023-12-20T06:35:24;101311.55;;;12.59;53.49
40372;BME280;28564;53.346;-6.554;2023-12-20T06:37:51;101310.76;;;12.06;53.64
40372;BME280;28564;53.346;-6.554;2023-12-20T06:40:18;101303.60;;;12.07;53.69
40372;BME280;28564;53.346;-6.554;2023-12-20T06:42:46;101307.67;;;12.35;53.57
40372;BME280;28564;53.346;-6.554;2023-12-20T06:45:13;101317.47;;;12.57;53.70
40372;BME280;28564;53.346;-6.554;2023-12-20T06:47:40;101302.14;;;12.33;53.74
40372;BME280;28564;53.346;-6.554;2023-12-20T06:50:08;101323.02;;;12.08;53.82
40372;BME280;28564;53.346;-6.554;2023-12-20T06:52:35;101341.44;;;12.33;53.97
40372;BME280;28564;53.346;-6.554;2023-12-20T06:55:03;101337.74;;;12.56;54.00
40372;BME280;28564;53.346;-6.554;2023-12-20T06:57:30;101336.53;;;12.57;53.98
40372;BME280;28564;53.346;-6.554;2023-12-20T06:59:57;101347.77;;;12.36;53.98
40372;BME280;28564;53.346;-6.554;2023-12-20T07:02:24;101332.88;;;12.57;54.36
40372;BME280;28564;53.346;-6.554;2023-12-20T07:04:51;101330.34;;;12.38;54.68
40372;BME280;28564;53.346;-6.554;2023-12-20T07:07:18;101316.64;;;12.35;54.91
40372;BME280;28564;53.346;-6.554;2023-12-20T07:09:46;101317.74;;;12.39;55.03
40372;BME280;28564;53.346;-6.554;2023-12-20T07:12:13;101329.48;;;12.37;54.98
40372;BME280;28564;53.346;-6.554;2023-12-20T07:14:40;101325.71;;;12.38;55.14
40372;BME280;28564;53.346;-6.554;2023-12-20T07:17:08;101318.89;;;12.38;55.19
40372;BME280;28564;53.346;-6.554;2023-12-20T07:19:35;101331.53;;;12.41;55.22
40372;BME280;28564;53.346;-6.554;2023-12-20T07:22:02;101336.10;;;12.64;55.38
40372;BME280;28564;53.346;-6.554;2023-12-20T07:24:29;101348.37;;;12.67;55.43
40372;BME280;28564;53.346;-6.554;2023-12-20T07:26:56;101331.50;;;12.20;55.35
40372;BME280;28564;53.346;-6.554;2023-12-20T07:29:23;101333.85;;;12.50;55.08
40372;BME280;28564;53.346;-6.554;2023-12-20T07:31:51;101328.02;;;12.52;55.12
40372;BME280;28564;53.346;-6.554;2023-12-20T07:34:19;101325.14;;;12.77;54.89
40372;BME280;28564;53.346;-6.554;2023-12-20T07:36:46;101319.04;;;12.30;54.95
40372;BME280;28564;53.346;-6.554;2023-12-20T07:39:14;101313.29;;;12.31;54.67
40372;BME280;28564;53.346;-6.554;2023-12-20T07:41:41;101312.57;;;12.81;54.64
40372;BME280;28564;53.346;-6.554;2023-12-20T07:44:08;101303.51;;;12.58;54.60
40372;BME280;28564;53.346;-6.554;2023-12-20T07:46:36;101285.42;;;12.33;54.64
40372;BME280;28564;53.346;-6.554;2023-12-20T07:49:04;101283.11;;;12.57;54.53
40372;BME280;28564;53.346;-6.554;2023-12-20T07:51:32;101263.00;;;12.76;54.18
40372;BME280;28564;53.346;-6.554;2023-12-20T07:54:00;101254.65;;;12.71;54.08
40372;BME280;28564;53.346;-6.554;2023-12-20T07:56:27;101264.70;;;12.67;53.95
40372;BME280;28564;53.346;-6.554;2023-12-20T07:58:54;101250.85;;;12.13;53.86
40372;BME280;28564;53.346;-6.554;2023-12-20T08:01:22;101252.33;;;12.61;53.83
40372;BME280;28564;53.346;-6.554;2023-12-20T08:03:50;101252.01;;;12.57;53.83
40372;BME280;28564;53.346;-6.554;2023-12-20T08:06:17;101256.93;;;12.34;53.81
40372;BME280;28564;53.346;-6.554;2023-12-20T08:08:44;101279.92;;;12.12;53.92
40372;BME280;28564;53.346;-6.554;2023-12-20T08:11:11;101272.96;;;12.18;53.78
40372;BME280;28564;53.346;-6.554;2023-12-20T08:13:38;101264.20;;;12.47;53.76
40372;BME280;28564;53.346;-6.554;2023-12-20T08:16:06;101260.99;;;12.51;53.59
40372;BME280;28564;53.346;-6.554;2023-12-20T08:18:33;101276.91;;;12.55;53.42
40372;BME280;28564;53.346;-6.554;2023-12-20T08:21:00;101259.12;;;12.59;53.35
40372;BME280;28564;53.346;-6.554;2023-12-20T08:23:27;101259.67;;;12.40;53.27
40372;BME280;28564;53.346;-6.554;2023-12-20T08:25:54;101277.58;;;12.43;53.27
40372;BME280;28564;53.346;-6.554;2023-12-20T08:28:21;101279.17;;;12.77;52.95
40372;BME280;28564;53.346;-6.554;2023-12-20T08:30:49;101288.80;;;12.81;52.91
40372;BME280;28564;53.346;-6.554;2023-12-20T08:33:16;101278.05;;;12.61;52.71
40372;BME280;28564;53.346;-6.554;2023-12-20T08:35:43;101272.45;;;12.69;52.33
40372;BME280;28564;53.346;-6.554;2023-12-20T08:38:11;101278.82;;;13.27;52.12
40372;BME280;28564;53.346;-6.554;2023-12-20T08:40:38;101290.12;;;12.94;51.83
40372;BME280;28564;53.346;-6.554;2023-12-20T08:43:05;101291.44;;;12.97;51.79
40372;BME280;28564;53.346;-6.554;2023-12-20T08:45:33;101294.75;;;12.92;52.04
40372;BME280;28564;53.346;-6.554;2023-12-20T08:48:00;101291.51;;;12.88;52.20
40372;BME280;28564;53.346;-6.554;2023-12-20T08:50:28;101292.82;;;13.13;52.48
40372;BME280;28564;53.346;-6.554;2023-12-20T08:52:55;101292.99;;;12.63;52.77
40372;BME280;28564;53.346;-6.554;2023-12-20T08:55:22;101280.01;;;12.84;52.96
40372;BME280;28564;53.346;-6.554;2023-12-20T08:57:49;101283.78;;;12.83;52.95
40372;BME280;28564;53.346;-6.554;2023-12-20T09:00:17;101270.52;;;12.83;53.01
40372;BME280;28564;53.346;-6.554;2023-12-20T09:02:45;101260.22;;;13.11;52.93
40372;BME280;28564;53.346;-6.554;2023-12-20T09:05:12;101252.26;;;12.84;52.74
40372;BME280;28564;53.346;-6.554;2023-12-20T09:07:39;101260.58;;;12.85;52.86
40372;BME280;28564;53.346;-6.554;2023-12-20T09:10:07;101260.50;;;13.15;52.98
40372;BME280;28564;53.346;-6.554;2023-12-20T09:12:34;101246.38;;;12.88;52.89
40372;BME280;28564;53.346;-6.554;2023-12-20T09:15:01;101231.58;;;12.88;52.51
40372;BME280;28564;53.346;-6.554;2023-12-20T09:17:28;101209.95;;;12.87;52.51
40372;BME280;28564;53.346;-6.554;2023-12-20T09:19:55;101207.92;;;13.38;52.66
40372;BME280;28564;53.346;-6.554;2023-12-20T09:22:23;101217.55;;;12.90;52.32
40372;BME280;28564;53.346;-6.554;2023-12-20T09:24:50;101209.14;;;13.23;52.04
40372;BME280;28564;53.346;-6.554;2023-12-20T09:27:17;101216.04;;;12.99;51.87
40372;BME280;28564;53.346;-6.554;2023-12-20T09:29:45;101203.09;;;12.99;51.73
40372;BME280;28564;53.346;-6.554;2023-12-20T09:32:12;101204.15;;;12.99;51.56
40372;BME280;28564;53.346;-6.554;2023-12-20T09:34:39;101211.18;;;13.01;51.55
40372;BME280;28564;53.346;-6.554;2023-12-20T09:37:06;101195.20;;;13.03;51.46
40372;BME280;28564;53.346;-6.554;2023-12-20T09:39:33;101185.64;;;13.08;51.38
40372;BME280;28564;53.346;-6.554;2023-12-20T09:42:02;101170.60;;;12.96;51.26
40372;BME280;28564;53.346;-6.554;2023-12-20T09:44:30;101179.32;;;13.01;51.45
40372;BME280;28564;53.346;-6.554;2023-12-20T09:46:58;101181.72;;;13.18;52.02
40372;BME280;28564;53.346;-6.554;2023-12-20T09:49:30;101190.93;;;13.14;52.45
40372;BME280;28564;53.346;-6.554;2023-12-20T09:51:57;101169.53;;;13.06;52.60
40372;BME280;28564;53.346;-6.554;2023-12-20T09:54:28;101167.00;;;13.01;52.74
40372;BME280;28564;53.346;-6.554;2023-12-20T09:56:55;101154.72;;;13.04;52.58
40372;BME280;28564;53.346;-6.554;2023-12-20T09:59:23;101162.25;;;12.99;52.58
40372;BME280;28564;53.346;-6.554;2023-12-20T10:01:51;101160.41;;;12.97;52.84
40372;BME280;28564;53.346;-6.554;2023-12-20T10:04:20;101157.02;;;12.98;52.70
40372;BME280;28564;53.346;-6.554;2023-12-20T10:06:47;101144.56;;;13.03;52.88
40372;BME280;28564;53.346;-6.554;2023-12-20T10:09:14;101141.72;;;13.05;52.86
40372;BME280;28564;53.346;-6.554;2023-12-20T10:11:41;101131.85;;;13.04;53.03
40372;BME280;28564;53.346;-6.554;2023-12-20T10:14:10;101117.35;;;13.04;53.17
40372;BME280;28564;53.346;-6.554;2023-12-20T10:16:37;101123.51;;;13.08;53.15
40372;BME280;28564;53.346;-6.554;2023-12-20T10:19:04;101113.55;;;13.13;53.14
40372;BME280;28564;53.346;-6.554;2023-12-20T10:21:32;101123.80;;;13.12;53.22
40372;BME280;28564;53.346;-6.554;2023-12-20T10:24:01;101126.35;;;13.16;52.95
40372;BME280;28564;53.346;-6.554;2023-12-20T10:26:28;101132.80;;;13.18;52.75
40372;BME280;28564;53.346;-6.554;2023-12-20T10:28:59;101130.02;;;13.20;52.43
40372;BME280;28564;53.346;-6.554;2023-12-20T10:31:28;101118.12;;;13.24;52.28
40372;BME280;28564;53.346;-6.554;2023-12-20T10:33:57;101120.08;;;13.23;52.14
40372;BME280;28564;53.346;-6.554;2023-12-20T10:36:26;101122.19;;;13.28;52.02
40372;BME280;28564;53.346;-6.554;2023-12-20T10:38:55;101143.46;;;13.35;51.91
40372;BME280;28564;53.346;-6.554;2023-12-20T10:41:25;101162.14;;;13.40;51.74
40372;BME280;28564;53.346;-6.554;2023-12-20T10:43:53;101147.26;;;13.38;51.53
40372;BME280;28564;53.346;-6.554;2023-12-20T10:46:21;101145.85;;;13.42;51.59
40372;BME280;28564;53.346;-6.554;2023-12-20T10:48:51;101144.45;;;13.20;51.88
40372;BME280;28564;53.346;-6.554;2023-12-20T10:51:18;101173.41;;;13.41;51.89
40372;BME280;28564;53.346;-6.554;2023-12-20T10:53:47;101147.35;;;13.35;52.07
40372;BME280;28564;53.346;-6.554;2023-12-20T10:56:17;101145.34;;;13.25;52.38
40372;BME280;28564;53.346;-6.554;2023-12-20T10:58:46;101146.57;;;13.23;52.57
40372;BME280;28564;53.346;-6.554;2023-12-20T11:01:14;101173.52;;;13.24;52.62
40372;BME280;28564;53.346;-6.554;2023-12-20T11:03:46;101159.56;;;13.18;52.75
40372;BME280;28564;53.346;-6.554;2023-12-20T11:06:27;101146.42;;;13.15;52.80
40372;BME280;28564;53.346;-6.554;2023-12-20T11:08:59;101156.46;;;13.10;52.79
40372;BME280;28564;53.346;-6.554;2023-12-20T11:11:34;101153.19;;;13.12;52.95
40372;BME280;28564;53.346;-6.554;2023-12-20T11:14:05;101163.25;;;13.08;52.84
40372;BME280;28564;53.346;-6.554;2023-12-20T11:16:36;101150.42;;;13.10;53.03
40372;BME280;28564;53.346;-6.554;2023-12-20T11:19:05;101146.95;;;13.17;52.80
40372;BME280;28564;53.346;-6.554;2023-12-20T11:21:33;101133.11;;;13.18;52.67
40372;BME280;28564;53.346;-6.554;2023-12-20T11:24:00;101131.67;;;13.22;52.27
40372;BME280;28564;53.346;-6.554;2023-12-20T11:26:29;101104.40;;;13.25;52.31
40372;BME280;28564;53.346;-6.554;2023-12-20T11:29:29;101090.79;;;13.32;51.79
40372;BME280;28564;53.346;-6.554;2023-12-20T11:31:56;101102.20;;;13.68;51.73
40372;BME280;28564;53.346;-6.554;2023-12-20T11:34:27;101089.96;;;13.46;51.45
40372;BME280;28564;53.346;-6.554;2023-12-20T11:36:59;101098.39;;;13.52;51.15
40372;BME280;28564;53.346;-6.554;2023-12-20T11:39:27;101095.80;;;13.54;50.88
40372;BME280;28564;53.346;-6.554;2023-12-20T11:41:56;101087.35;;;13.58;50.82
40372;BME280;28564;53.346;-6.554;2023-12-20T11:44:25;101082.96;;;13.58;50.64
40372;BME280;28564;53.346;-6.554;2023-12-20T11:46:52;101086.19;;;13.59;50.60
40372;BME280;28564;53.346;-6.554;2023-12-20T11:49:23;101073.54;;;13.32;50.61
40372;BME280;28564;53.346;-6.554;2023-12-20T11:51:51;101081.83;;;13.64;50.53
40372;BME280;28564;53.346;-6.554;2023-12-20T11:54:18;101074.44;;;13.68;50.52
40372;BME280;28564;53.346;-6.554;2023-12-20T11:56:46;101075.88;;;13.50;50.65
40372;BME280;28564;53.346;-6.554;2023-12-20T11:59:14;101075.64;;;13.79;50.56
40372;BME280;28564;53.346;-6.554;2023-12-20T12:01:48;101090.62;;;13.83;50.41
40372;BME280;28564;53.346;-6.554;2023-12-20T12:04:16;101065.93;;;13.83;50.26
40372;BME280;28564;53.346;-6.554;2023-12-20T12:06:43;101060.28;;;13.66;50.32
40372;BME280;28564;53.346;-6.554;2023-12-20T12:09:10;101059.51;;;13.94;50.64
40372;BME280;28564;53.346;-6.554;2023-12-20T12:11:38;101053.29;;;13.91;51.12
40372;BME280;28564;53.346;-6.554;2023-12-20T12:14:07;101063.08;;;13.60;51.56
40372;BME280;28564;53.346;-6.554;2023-12-20T12:16:35;101062.32;;;13.76;51.97
40372;BME280;28564;53.346;-6.554;2023-12-20T12:19:02;101051.29;;;13.46;52.37
40372;BME280;28564;53.346;-6.554;2023-12-20T12:21:29;101066.49;;;13.59;52.84
40372;BME280;28564;53.346;-6.554;2023-12-20T12:24:07;101062.24;;;13.53;53.16
40372;BME280;28564;53.346;-6.554;2023-12-20T12:26:34;101085.20;;;13.25;53.40
40372;BME280;28564;53.346;-6.554;2023-12-20T12:29:01;101060.89;;;13.47;53.50
40372;BME280;28564;53.346;-6.554;2023-12-20T12:31:28;101059.65;;;13.48;53.72
40372;BME280;28564;53.346;-6.554;2023-12-20T12:33:56;101072.06;;;13.30;53.64
40372;BME280;28564;53.346;-6.554;2023-12-20T12:36:23;101047.68;;;13.57;53.70
40372;BME280;28564;53.346;-6.554;2023-12-20T12:38:50;101046.86;;;13.59;53.66
40372;BME280;28564;53.346;-6.554;2023-12-20T12:41:18;101031.44;;;13.35;53.59
40372;BME280;28564;53.346;-6.554;2023-12-20T12:43:45;101032.55;;;13.57;53.87